createdAt,value
2022-12-26T00:01:15.086Z,100728.81
2022-12-26T00:03:37.820Z,100729.09
2022-12-26T00:06:00.357Z,100714.56
2022-12-26T00:08:22.688Z,100698.91
2022-12-26T00:10:45.102Z,100687.13
2022-12-26T00:13:39.501Z,100669.84
2022-12-26T00:15:35.062Z,100675.91
2022-12-26T00:17:37.084Z,100666.56
2022-12-26T00:19:39.173Z,100676.72
2022-12-26T00:21:41.635Z,100660.28
2022-12-26T00:23:45.187Z,100670.41
2022-12-26T00:25:48.063Z,100656.72
2022-12-26T00:27:50.176Z,100661.03
2022-12-26T00:29:52.318Z,100645.94
2022-12-26T00:31:55.523Z,100646.22
2022-12-26T00:33:58.576Z,100628.19
2022-12-26T00:36:04.918Z,100631.50
2022-12-26T00:38:08.124Z,100627.34
2022-12-26T00:40:24.002Z,100623.50
2022-12-26T00:42:26.485Z,100639.16
2022-12-26T00:44:28.873Z,100630.41
2022-12-26T00:46:31.482Z,100600.22
2022-12-26T00:48:52.528Z,100597.50
2022-12-26T00:51:13.221Z,100581.03
2022-12-26T00:53:35.839Z,100577.75
2022-12-26T00:55:58.290Z,100562.94
2022-12-26T00:58:21.352Z,100567.34
2022-12-26T01:00:43.749Z,100558.53
2022-12-26T01:03:09.504Z,100575.53
2022-12-26T01:05:31.933Z,100576.66
2022-12-26T01:08:22.168Z,100561.81
2022-12-26T01:10:36.642Z,100578.28
2022-12-26T01:12:58.976Z,100567.00
2022-12-26T01:15:21.394Z,100579.03
2022-12-26T01:17:43.741Z,100573.03
2022-12-26T01:20:06.591Z,100571.63
2022-12-26T01:22:29.033Z,100572.13
2022-12-26T01:24:55.137Z,100565.00
2022-12-26T01:27:17.507Z,100561.16
2022-12-26T01:29:39.878Z,100552.94
2022-12-26T01:32:02.339Z,100550.69
2022-12-26T01:34:24.867Z,100541.38
2022-12-26T01:36:47.229Z,100544.13
2022-12-26T01:39:09.623Z,100540.28
2022-12-26T01:41:33.330Z,100524.41
2022-12-26T01:44:04.575Z,100513.34
2022-12-26T01:46:42.426Z,100505.94
2022-12-26T01:49:17.485Z,100503.19
2022-12-26T01:51:41.321Z,100499.63
2022-12-26T01:54:37.210Z,100497.72
2022-12-26T01:56:46.481Z,100480.41
2022-12-26T01:59:16.700Z,100474.13
2022-12-26T02:01:40.555Z,100466.47
2022-12-26T02:04:23.863Z,100469.22
2022-12-26T02:06:46.248Z,100453.91
2022-12-26T02:09:09.041Z,100450.25
2022-12-26T02:11:41.279Z,100442.84
2022-12-26T02:14:05.961Z,100446.09
2022-12-26T02:16:28.322Z,100435.41
2022-12-26T02:18:50.685Z,100429.63
2022-12-26T02:21:58.709Z,100411.00
2022-12-26T02:25:21.293Z,100423.94
2022-12-26T02:28:16.222Z,100396.50
2022-12-26T02:30:58.839Z,100385.00
2022-12-26T02:33:36.374Z,100388.28
2022-12-26T02:36:15.127Z,100391.53
2022-12-26T02:39:43.800Z,100375.06
2022-12-26T02:42:39.196Z,100365.19
2022-12-26T02:45:44.485Z,100355.53
2022-12-26T02:48:33.353Z,100360.25
2022-12-26T02:51:41.243Z,100334.72
2022-12-26T02:54:49.003Z,100337.97
2022-12-26T02:57:35.690Z,100333.00
2022-12-26T03:00:26.045Z,100331.88
2022-12-26T03:03:22.436Z,100310.44
2022-12-26T03:06:26.601Z,100315.13
2022-12-26T03:09:15.152Z,100321.94
2022-12-26T03:11:58.664Z,100324.09
2022-12-26T03:14:32.483Z,100317.78
2022-12-26T03:17:18.880Z,100320.25
2022-12-26T03:19:58.365Z,100323.16
2022-12-26T03:22:33.074Z,100322.06
2022-12-26T03:25:13.585Z,100306.41
2022-12-26T03:27:35.947Z,100302.03
2022-12-26T03:30:16.957Z,100299.81
2022-12-26T03:32:43.680Z,100302.84
2022-12-26T03:35:13.229Z,100304.72
2022-12-26T03:37:50.112Z,100291.00
2022-12-26T03:41:19.718Z,100296.75
2022-12-26T03:44:30.640Z,100293.41
2022-12-26T03:47:35.538Z,100304.91
2022-12-26T03:50:23.624Z,100288.13
2022-12-26T03:53:30.799Z,100287.31
2022-12-26T03:56:25.694Z,100276.06
2022-12-26T03:59:28.021Z,100285.59
2022-12-26T04:02:09.790Z,100273.50
2022-12-26T04:04:51.810Z,100268.03
2022-12-26T04:07:56.016Z,100275.94
2022-12-26T04:10:43.559Z,100266.59
2022-12-26T04:13:26.928Z,100273.41
2022-12-26T04:16:34.332Z,100291.19
2022-12-26T04:19:24.597Z,100275.53
2022-12-26T04:22:17.380Z,100276.25
2022-12-26T04:25:12.942Z,100276.78
2022-12-26T04:27:54.021Z,100276.47
2022-12-26T04:30:35.181Z,100268.75
2022-12-26T04:33:24.789Z,100259.16
2022-12-26T04:36:08.180Z,100255.31
2022-12-26T04:38:56.831Z,100256.63
2022-12-26T04:41:38.089Z,100246.25
2022-12-26T04:44:12.234Z,100239.88
2022-12-26T04:46:38.283Z,100246.97
2022-12-26T04:49:19.422Z,100233.75
2022-12-26T04:51:41.753Z,100214.00
2022-12-26T04:54:04.583Z,100222.56
2022-12-26T04:56:26.978Z,100215.97
2022-12-26T04:58:49.386Z,100215.34
2022-12-26T05:01:30.603Z,100220.84
2022-12-26T05:04:11.604Z,100208.72
2022-12-26T05:06:52.611Z,100205.97
2022-12-26T05:09:33.837Z,100194.38
2022-12-26T05:11:56.240Z,100167.72
2022-12-26T05:14:18.725Z,100196.50
2022-12-26T05:16:59.788Z,100197.84
2022-12-26T05:19:40.931Z,100190.09
2022-12-26T05:22:22.087Z,100191.75
2022-12-26T05:25:03.062Z,100209.53
2022-12-26T05:27:44.273Z,100194.06
2022-12-26T05:30:07.867Z,100183.09
2022-12-26T05:32:48.644Z,100169.34
2022-12-26T05:35:10.974Z,100176.44
2022-12-26T05:37:33.333Z,100180.75
2022-12-26T05:39:55.732Z,100187.88
2022-12-26T05:42:18.121Z,100173.03
2022-12-26T05:44:40.481Z,100176.47
2022-12-26T05:47:02.917Z,100166.78
2022-12-26T05:49:25.290Z,100157.91
2022-12-26T05:51:47.702Z,100157.28
2022-12-26T05:54:10.214Z,100156.38
2022-12-26T05:56:32.622Z,100168.19
2022-12-26T05:59:01.801Z,100166.22
2022-12-26T06:01:24.570Z,100154.59
2022-12-26T06:03:53.012Z,100151.56
2022-12-26T06:06:15.674Z,100149.31
2022-12-26T06:08:38.343Z,100139.94
2022-12-26T06:11:07.151Z,100143.38
2022-12-26T06:13:29.502Z,100141.63
2022-12-26T06:15:51.883Z,100163.00
2022-12-26T06:18:14.279Z,100155.25
2022-12-26T06:20:39.481Z,100157.38
2022-12-26T06:23:01.847Z,100158.84
2022-12-26T06:25:24.269Z,100167.63
2022-12-26T06:27:46.704Z,100163.44
2022-12-26T06:30:09.691Z,100161.50
2022-12-26T06:32:32.056Z,100138.88
2022-12-26T06:34:54.397Z,100139.53
2022-12-26T06:37:17.014Z,100147.50
2022-12-26T06:39:39.399Z,100132.59
2022-12-26T06:42:01.776Z,100134.72
2022-12-26T06:44:24.123Z,100135.22
2022-12-26T06:46:46.562Z,100132.16
2022-12-26T06:49:08.958Z,100145.59
2022-12-26T06:51:31.364Z,100139.47
2022-12-26T06:53:54.152Z,100131.06
2022-12-26T06:56:22.343Z,100132.06
2022-12-26T06:58:44.733Z,100131.94
2022-12-26T07:01:16.251Z,100124.81
2022-12-26T07:03:41.950Z,100130.00
2022-12-26T07:06:32.127Z,100129.34
2022-12-26T07:09:00.891Z,100136.97
2022-12-26T07:11:26.918Z,100116.25
2022-12-26T07:13:49.317Z,100119.84
2022-12-26T07:16:11.903Z,100115.97
2022-12-26T07:18:34.338Z,100117.59
2022-12-26T07:20:56.718Z,100120.00
2022-12-26T07:23:19.067Z,100120.53
2022-12-26T07:25:41.422Z,100117.13
2022-12-26T07:28:04.396Z,100128.94
2022-12-26T07:30:26.785Z,100128.94
2022-12-26T07:32:49.149Z,100128.94
2022-12-26T07:35:11.494Z,100137.19
2022-12-26T07:37:33.850Z,100129.44
2022-12-26T07:39:59.233Z,100124.13
2022-12-26T07:42:21.838Z,100128.16
2022-12-26T07:44:44.229Z,100137.53
2022-12-26T07:47:06.569Z,100133.97
2022-12-26T07:49:28.952Z,100121.03
2022-12-26T07:51:51.382Z,100106.63
2022-12-26T07:54:13.929Z,100116.53
2022-12-26T07:56:36.341Z,100120.09
2022-12-26T07:58:58.869Z,100113.63
2022-12-26T08:01:21.298Z,100124.63
2022-12-26T08:03:43.937Z,100138.91
2022-12-26T08:06:06.808Z,100120.59
2022-12-26T08:08:29.162Z,100107.81
2022-12-26T08:11:02.490Z,100106.53
2022-12-26T08:13:24.948Z,100113.66
2022-12-26T08:15:47.277Z,100120.47
2022-12-26T08:18:09.721Z,100136.06
2022-12-26T08:20:32.125Z,100122.75
2022-12-26T08:25:22.141Z,100128.63
2022-12-26T08:27:44.708Z,100117.25
2022-12-26T08:30:08.026Z,100134.13
2022-12-26T08:32:30.287Z,100114.22
2022-12-26T08:34:52.759Z,100139.00
2022-12-26T08:37:15.184Z,100138.22
2022-12-26T08:39:37.890Z,100123.97
2022-12-26T08:42:00.275Z,100112.47
2022-12-26T08:44:27.492Z,100116.69
2022-12-26T08:46:50.169Z,100119.09
2022-12-26T08:49:12.609Z,100124.13
2022-12-26T08:51:34.998Z,100123.16
2022-12-26T08:53:57.364Z,100132.53
2022-12-26T08:56:23.157Z,100136.94
2022-12-26T08:58:45.988Z,100122.50
2022-12-26T09:01:17.069Z,100139.56
2022-12-26T09:03:40.183Z,100130.28
2022-12-26T09:06:06.242Z,100138.41
2022-12-26T09:08:30.467Z,100135.78
2022-12-26T09:10:52.861Z,100142.63
2022-12-26T09:13:15.206Z,100128.47
2022-12-26T09:15:37.639Z,100156.41
2022-12-26T09:18:00.007Z,100159.34
2022-12-26T09:20:22.416Z,100139.03
2022-12-26T09:22:50.816Z,100157.19
2022-12-26T09:25:13.197Z,100140.47
2022-12-26T09:27:35.598Z,100153.13
2022-12-26T09:29:57.951Z,100140.47
2022-12-26T09:32:20.338Z,100128.28
2022-12-26T09:34:42.670Z,100122.13
2022-12-26T09:37:05.079Z,100120.00
2022-12-26T09:39:27.455Z,100117.06
2022-12-26T09:42:29.309Z,100150.19
2022-12-26T09:44:58.342Z,100136.50
2022-12-26T09:47:36.110Z,100125.16
2022-12-26T09:50:14.489Z,100119.78
2022-12-26T09:53:01.810Z,100105.63
2022-12-26T09:55:48.871Z,100124.00
2022-12-26T09:58:52.024Z,100098.84
2022-12-26T10:01:23.797Z,100105.19
2022-12-26T10:03:56.482Z,100118.00
2022-12-26T10:06:27.554Z,100125.63
2022-12-26T10:09:07.302Z,100111.63
2022-12-26T10:11:50.229Z,100103.00
2022-12-26T10:15:14.841Z,100119.03
2022-12-26T10:17:53.783Z,100123.91
2022-12-26T10:20:33.491Z,100108.31
2022-12-26T10:23:45.701Z,100102.09
2022-12-26T10:26:20.650Z,100130.84
2022-12-26T10:28:56.471Z,100096.13
2022-12-26T10:31:42.322Z,100105.72
2022-12-26T10:33:58.669Z,100104.44
2022-12-26T10:36:00.679Z,100096.69
2022-12-26T10:38:27.513Z,100092.56
2022-12-26T10:40:42.259Z,100107.19
2022-12-26T10:42:48.341Z,100092.78
2022-12-26T10:44:50.425Z,100069.28
2022-12-26T10:47:17.012Z,100097.47
2022-12-26T10:49:24.331Z,100095.63
2022-12-26T10:51:26.904Z,100085.22
2022-12-26T10:53:28.948Z,100098.25
2022-12-26T10:55:34.471Z,100101.97
2022-12-26T10:57:41.445Z,100094.66
2022-12-26T10:59:48.975Z,100131.31
2022-12-26T11:01:52.013Z,100081.34
2022-12-26T11:04:44.477Z,100076.81
2022-12-26T11:06:45.694Z,100100.84
2022-12-26T11:08:49.663Z,100086.56
2022-12-26T11:11:27.371Z,100113.97
2022-12-26T11:13:32.588Z,100080.97
2022-12-26T11:15:49.881Z,100084.56
2022-12-26T11:17:52.829Z,100082.44
2022-12-26T11:20:17.105Z,100068.47
2022-12-26T11:22:28.049Z,100104.63
2022-12-26T11:24:30.460Z,100069.84
2022-12-26T11:26:33.097Z,100087.94
2022-12-26T11:28:37.040Z,100081.72
2022-12-26T11:30:40.307Z,100076.50
2022-12-26T11:32:43.790Z,100074.56
2022-12-26T11:34:48.163Z,100088.72
2022-12-26T11:36:51.117Z,100083.31
2022-12-26T11:38:57.987Z,100100.44
2022-12-26T11:41:22.913Z,100096.53
2022-12-26T11:43:25.228Z,100095.28
2022-12-26T11:45:32.783Z,100090.88
2022-12-26T11:47:38.407Z,100111.38
2022-12-26T11:49:52.267Z,100117.72
2022-12-26T11:51:59.281Z,100117.72
2022-12-26T11:54:26.884Z,100121.66
2022-12-26T11:56:28.968Z,100122.19
2022-12-26T11:58:32.404Z,100112.63
2022-12-26T12:00:34.524Z,100128.72
2022-12-26T12:02:37.575Z,100124.31
2022-12-26T12:04:39.693Z,100120.41
2022-12-26T12:07:10.855Z,100121.53
2022-12-26T12:09:36.032Z,100116.38
2022-12-26T12:11:44.602Z,100128.56
2022-12-26T12:14:01.504Z,100112.19
2022-12-26T12:16:29.068Z,100127.16
2022-12-26T12:18:46.891Z,100135.44
2022-12-26T12:21:18.792Z,100128.31
2022-12-26T12:23:40.803Z,100133.03
2022-12-26T12:27:01.620Z,100127.00
2022-12-26T12:29:28.983Z,100128.63
2022-12-26T12:31:59.265Z,100138.41
2022-12-26T12:34:22.933Z,100137.59
2022-12-26T12:36:45.038Z,100127.34
2022-12-26T12:39:25.965Z,100139.22
2022-12-26T12:42:03.681Z,100130.13
2022-12-26T12:44:27.278Z,100128.16
2022-12-26T12:46:51.754Z,100122.28
2022-12-26T12:49:25.049Z,100107.66
2022-12-26T12:51:39.116Z,100145.22
2022-12-26T12:54:10.819Z,100114.13
2022-12-26T12:56:28.244Z,100126.34
2022-12-26T12:58:53.868Z,100113.31
2022-12-26T13:01:14.817Z,100111.84
2022-12-26T13:03:31.775Z,100112.34
2022-12-26T13:06:04.956Z,100119.13
2022-12-26T13:08:35.681Z,100115.91
2022-12-26T13:10:56.202Z,100110.69
2022-12-26T13:12:58.398Z,100117.03
2022-12-26T13:15:36.055Z,100119.00
2022-12-26T13:18:03.135Z,100120.13
2022-12-26T13:20:42.686Z,100105.53
2022-12-26T13:23:20.652Z,100106.19
2022-12-26T13:25:26.511Z,100102.63
2022-12-26T13:27:36.763Z,100080.84
2022-12-26T13:29:41.253Z,100124.38
2022-12-26T13:31:44.251Z,100112.03
2022-12-26T13:33:47.025Z,100114.50
2022-12-26T13:36:02.225Z,100112.19
2022-12-26T13:38:04.721Z,100125.41
2022-12-26T13:40:13.381Z,100127.81
2022-12-26T13:42:40.684Z,100138.06
2022-12-26T13:44:43.116Z,100151.88
2022-12-26T13:46:48.552Z,100145.53
2022-12-26T13:48:58.201Z,100138.25
2022-12-26T13:51:02.451Z,100142.50
2022-12-26T13:53:25.382Z,100145.75
2022-12-26T13:55:42.309Z,100151.94
2022-12-26T13:57:45.759Z,100152.75
2022-12-26T14:00:00.710Z,100158.59
2022-12-26T14:02:25.090Z,100159.09
2022-12-26T14:05:33.717Z,100143.19
2022-12-26T14:07:51.226Z,100145.94
2022-12-26T14:10:12.944Z,100147.53
2022-12-26T14:12:47.292Z,100160.59
2022-12-26T14:15:12.885Z,100147.75
2022-12-26T14:18:04.103Z,100167.41
2022-12-26T14:20:40.279Z,100160.28
2022-12-26T14:23:28.203Z,100160.81
2022-12-26T14:25:50.509Z,100170.06
2022-12-26T14:28:25.680Z,100172.81
2022-12-26T14:30:36.832Z,100184.19
2022-12-26T14:33:12.116Z,100180.28
2022-12-26T14:35:32.650Z,100176.25
2022-12-26T14:37:59.890Z,100180.63
2022-12-26T14:40:34.395Z,100169.09
2022-12-26T14:43:14.312Z,100172.19
2022-12-26T14:45:37.511Z,100170.91
2022-12-26T14:47:46.615Z,100167.00
2022-12-26T14:49:49.832Z,100158.34
2022-12-26T14:51:52.575Z,100166.50
2022-12-26T14:54:27.486Z,100157.06
2022-12-26T14:56:33.364Z,100166.19
2022-12-26T14:58:41.442Z,100153.19
2022-12-26T15:00:44.039Z,100168.13
2022-12-26T15:03:17.280Z,100181.94
2022-12-26T15:05:27.507Z,100184.69
2022-12-26T15:08:38.891Z,100184.84
2022-12-26T15:11:23.041Z,100190.22
2022-12-26T15:13:43.452Z,100189.09
2022-12-26T15:16:13.576Z,100186.66
2022-12-26T15:18:59.714Z,100186.50
2022-12-26T15:21:09.156Z,100177.75
2022-12-26T15:23:45.458Z,100182.31
2022-12-26T15:27:01.393Z,100200.34
2022-12-26T15:29:27.832Z,100191.59
2022-12-26T15:31:40.098Z,100184.78
2022-12-26T15:34:22.509Z,100181.38
2022-12-26T15:36:54.047Z,100194.69
2022-12-26T15:39:23.798Z,100196.97
2022-12-26T15:41:36.175Z,100175.19
2022-12-26T15:44:00.620Z,100186.91
2022-12-26T15:46:36.943Z,100182.03
2022-12-26T15:49:01.377Z,100187.09
2022-12-26T15:51:16.118Z,100186.28
2022-12-26T15:54:02.048Z,100179.13
2022-12-26T15:56:41.343Z,100190.16
2022-12-26T15:59:38.747Z,100183.88
2022-12-26T16:01:43.876Z,100191.81
2022-12-26T16:03:54.652Z,100191.66
2022-12-26T16:06:32.509Z,100202.03
2022-12-26T16:09:20.194Z,100196.50
2022-12-26T16:11:30.436Z,100209.66
2022-12-26T16:13:33.530Z,100205.28
2022-12-26T16:15:49.292Z,100224.94
2022-12-26T16:17:52.293Z,100228.84
2022-12-26T16:19:55.064Z,100222.84
2022-12-26T16:22:22.368Z,100242.97
2022-12-26T16:24:25.335Z,100228.22
2022-12-26T16:26:30.956Z,100235.00
2022-12-26T16:28:42.601Z,100217.50
2022-12-26T16:30:45.577Z,100237.66
2022-12-26T16:32:48.358Z,100221.88
2022-12-26T16:34:51.276Z,100221.41
2022-12-26T16:36:54.179Z,100229.38
2022-12-26T16:38:56.780Z,100224.47
2022-12-26T16:41:00.642Z,100219.44
2022-12-26T16:43:25.386Z,100230.66
2022-12-26T16:45:30.517Z,100244.13
2022-12-26T16:47:33.853Z,100248.84
2022-12-26T16:49:36.874Z,100225.47
2022-12-26T16:51:40.985Z,100231.81
2022-12-26T16:53:44.432Z,100233.75
2022-12-26T16:55:53.754Z,100240.91
2022-12-26T16:57:56.913Z,100242.50
2022-12-26T16:59:59.523Z,100245.28
2022-12-26T17:02:05.893Z,100243.00
2022-12-26T17:04:23.111Z,100249.66
2022-12-26T17:06:37.388Z,100244.97
2022-12-26T17:08:48.990Z,100243.00
2022-12-26T17:10:51.932Z,100237.34
2022-12-26T17:12:55.857Z,100248.03
2022-12-26T17:14:59.073Z,100252.41
2022-12-26T17:17:08.371Z,100270.47
2022-12-26T17:19:19.969Z,100266.53
2022-12-26T17:21:30.173Z,100260.88
2022-12-26T17:23:38.997Z,100251.13
2022-12-26T17:25:45.622Z,100259.41
2022-12-26T17:28:11.002Z,100249.84
2022-12-26T17:30:27.183Z,100254.22
2022-12-26T17:32:35.459Z,100254.22
2022-12-26T17:34:38.851Z,100246.59
2022-12-26T17:41:26.582Z,100231.66
2022-12-26T17:43:37.442Z,100249.34
2022-12-26T17:45:46.610Z,100240.75
2022-12-26T17:47:54.853Z,100244.34
2022-12-26T17:49:57.384Z,100261.72
2022-12-26T17:52:01.955Z,100247.41
2022-12-26T17:54:04.699Z,100259.59
2022-12-26T17:56:23.458Z,100250.50
2022-12-26T17:58:25.970Z,100261.06
2022-12-26T18:00:29.187Z,100250.03
2022-12-26T18:02:31.521Z,100268.53
2022-12-26T18:04:34.596Z,100251.97
2022-12-26T18:06:37.471Z,100252.28
2022-12-26T18:08:41.650Z,100245.47
2022-12-26T18:10:44.387Z,100253.09
2022-12-26T18:12:47.757Z,100256.84
2022-12-26T18:14:50.050Z,100247.59
2022-12-26T18:16:52.176Z,100253.91
2022-12-26T18:18:54.578Z,100263.50
2022-12-26T18:20:56.936Z,100250.69
2022-12-26T18:22:59.575Z,100255.88
2022-12-26T18:25:02.700Z,100242.88
2022-12-26T18:27:05.465Z,100250.34
2022-12-26T18:29:07.986Z,100245.16
2022-12-26T18:31:14.871Z,100241.25
2022-12-26T18:33:17.233Z,100245.66
2022-12-26T18:35:20.006Z,100228.44
2022-12-26T18:37:23.824Z,100229.25
2022-12-26T18:39:26.870Z,100233.31
2022-12-26T18:41:29.987Z,100227.47
2022-12-26T18:43:32.653Z,100238.81
2022-12-26T18:45:35.289Z,100232.16
2022-12-26T18:47:37.915Z,100235.28
2022-12-26T18:49:41.717Z,100233.63
2022-12-26T18:51:44.418Z,100233.63
2022-12-26T18:53:47.611Z,100226.84
2022-12-26T18:55:50.312Z,100229.25
2022-12-26T18:57:53.104Z,100229.25
2022-12-26T18:59:55.622Z,100226.34
2022-12-26T19:01:58.361Z,100239.47
2022-12-26T19:04:01.291Z,100241.13
2022-12-26T19:06:04.510Z,100235.44
2022-12-26T19:08:07.124Z,100240.94
2022-12-26T19:10:10.810Z,100239.31
2022-12-26T19:12:13.206Z,100241.25
2022-12-26T19:14:21.091Z,100242.06
2022-12-26T19:16:23.906Z,100242.41
2022-12-26T19:18:26.187Z,100254.09
2022-12-26T19:20:29.218Z,100243.88
2022-12-26T19:22:31.588Z,100244.19
2022-12-26T19:24:34.582Z,100250.53
2022-12-26T19:26:36.813Z,100266.25
2022-12-26T19:28:38.916Z,100248.56
2022-12-26T19:30:41.502Z,100262.69
2022-12-26T19:32:44.237Z,100251.16
2022-12-26T19:34:47.124Z,100258.63
2022-12-26T19:36:50.421Z,100250.00
2022-12-26T19:38:54.348Z,100257.16
2022-12-26T19:41:12.617Z,100267.38
2022-12-26T19:43:15.612Z,100254.91
2022-12-26T19:45:18.260Z,100253.59
2022-12-26T19:47:21.054Z,100260.25
2022-12-26T19:49:26.395Z,100258.63
2022-12-26T19:51:32.913Z,100257.50
2022-12-26T19:53:36.355Z,100252.47
2022-12-26T19:55:40.364Z,100264.31
2022-12-26T19:57:42.702Z,100250.53
2022-12-26T19:59:45.577Z,100251.34
2022-12-26T20:01:48.162Z,100248.56
2022-12-26T20:03:52.939Z,100248.06
2022-12-26T20:05:55.580Z,100251.66
2022-12-26T20:07:58.318Z,100236.56
2022-12-26T20:10:00.591Z,100281.50
2022-12-26T20:12:21.129Z,100254.75
2022-12-26T20:14:41.515Z,100257.81
2022-12-26T20:17:06.151Z,100260.25
2022-12-26T20:19:29.317Z,100262.69
2022-12-26T20:21:51.780Z,100266.56
2022-12-26T20:24:14.312Z,100255.88
2022-12-26T20:26:36.707Z,100259.59
2022-12-26T20:29:03.565Z,100258.47
2022-12-26T20:31:25.967Z,100243.53
2022-12-26T20:33:51.248Z,100267.06
2022-12-26T20:36:24.536Z,100248.88
2022-12-26T20:38:47.376Z,100259.28
2022-12-26T20:41:10.000Z,100272.25
2022-12-26T20:43:32.738Z,100270.63
2022-12-26T20:45:55.306Z,100252.78
2022-12-26T20:48:17.697Z,100258.28
2022-12-26T20:50:40.055Z,100280.69
2022-12-26T20:53:02.624Z,100270.28
2022-12-26T20:55:25.001Z,100263.78
2022-12-26T20:57:47.333Z,100239.91
2022-12-26T21:00:10.924Z,100244.94
2022-12-26T21:02:33.376Z,100271.56
2022-12-26T21:04:55.881Z,100256.16
2022-12-26T21:07:18.228Z,100269.13
2022-12-26T21:09:45.984Z,100279.84
2022-12-26T21:12:09.081Z,100279.84
2022-12-26T21:14:31.530Z,100274.81
2022-12-26T21:16:56.537Z,100273.16
2022-12-26T21:19:19.592Z,100267.81
2022-12-26T21:21:43.640Z,100277.84
2022-12-26T21:24:10.452Z,100291.34
2022-12-26T21:26:35.331Z,100290.00
2022-12-26T21:29:02.648Z,100289.22
2022-12-26T21:31:25.087Z,100301.19
2022-12-26T21:33:47.458Z,100293.41
2022-12-26T21:36:13.765Z,100290.50
2022-12-26T21:38:36.319Z,100287.88
2022-12-26T21:40:58.753Z,100290.97
2022-12-26T21:43:22.448Z,100293.72
2022-12-26T21:45:44.894Z,100287.41
2022-12-26T21:48:07.450Z,100301.31
2022-12-26T21:50:29.835Z,100297.06
2022-12-26T21:52:52.172Z,100282.47
2022-12-26T21:55:26.537Z,100288.31
2022-12-26T21:57:48.900Z,100295.28
2022-12-26T22:00:11.913Z,100309.38
2022-12-26T22:02:55.942Z,100304.69
2022-12-26T22:05:19.772Z,100303.88
2022-12-26T22:07:42.273Z,100306.78
2022-12-26T22:10:05.552Z,100295.28
2022-12-26T22:12:46.322Z,100297.53
2022-12-26T22:15:29.397Z,100300.13
2022-12-26T22:17:51.780Z,100291.06
2022-12-26T22:20:14.147Z,100296.06
2022-12-26T22:22:36.571Z,100303.69
2022-12-26T22:24:58.992Z,100303.19
2022-12-26T22:27:21.372Z,100300.94
2022-12-26T22:29:43.720Z,100302.56
2022-12-26T22:32:06.139Z,100309.88
2022-12-26T22:34:28.462Z,100308.72
2022-12-26T22:36:50.838Z,100301.63
2022-12-26T22:39:16.281Z,100313.28
2022-12-26T22:41:38.715Z,100327.06
2022-12-26T22:44:01.073Z,100339.16
2022-12-26T22:46:23.679Z,100334.41
2022-12-26T22:48:46.122Z,100356.44
2022-12-26T22:51:09.050Z,100379.44
2022-12-26T22:53:31.466Z,100391.03
2022-12-26T22:56:02.163Z,100376.44
2022-12-26T22:58:24.668Z,100367.00
2022-12-26T23:00:47.111Z,100390.03
2022-12-26T23:03:09.732Z,100416.78
2022-12-26T23:05:32.374Z,100412.50
2022-12-26T23:07:55.024Z,100437.09
2022-12-26T23:10:21.175Z,100447.31
2022-12-26T23:12:43.779Z,100443.34
2022-12-26T23:15:07.074Z,100444.59
2022-12-26T23:17:49.416Z,100439.16
2022-12-26T23:20:33.346Z,100438.75
2022-12-26T23:22:56.161Z,100472.09
2022-12-26T23:25:18.604Z,100461.09
2022-12-26T23:27:59.689Z,100467.31
2022-12-26T23:30:23.249Z,100472.81
2022-12-26T23:32:52.724Z,100489.13
2022-12-26T23:35:15.139Z,100488.63
2022-12-26T23:37:38.616Z,100494.75
2022-12-26T23:40:01.025Z,100504.91
2022-12-26T23:42:23.384Z,100502.03
2022-12-26T23:44:45.738Z,100495.59
2022-12-26T23:47:08.837Z,100501.09
2022-12-26T23:49:31.177Z,100491.13
2022-12-26T23:51:53.560Z,100504.13
2022-12-26T23:54:15.951Z,100508.00
2022-12-26T23:56:38.315Z,100494.34
2022-12-26T23:59:00.663Z,100509.41
